Search for airport 
image banner adimage banner adimage banner ad
image banner ad

KFXY - Forest City Muni

Located in Forest City, United States

ICAO - FXY, IATA - FXY

Data provided by Airmate  

General information

Coordinates: N43°14'5" W93°37'27"
Elevation is 1229 feet MSL.
Magnetic variation is 03° East
View others Airports in Iowa

Operational data

Special qualification required
Current time UTC:
Current local time:
Weather
METAR: KFXY 181835Z AUTO 26003KT 10SM CLR 31/10 A2986 RMK AO2
View NOTAMs / SUP AIP / TFR affecting this airport [VIEW]
Communications frequencies: [VIEW]

Runways:

RWY identifierQFULength (ft)Width (ft)SurfaceLDA (ft)
0995°270760ASPH
27275°270760ASPH
15155°5796100ASPH
33335°5796100ASPH

Airport contact information

Address: Forest City United States

Other aviation service providers

Flight schools

Forest City Aviation, Inc.

Forest City Aviation, Inc.
trimbler@wctatel.net+1(641)581-2880

Satellite view of KFXY